Time;durP1;ratioP1;P1;durP2;ratioP2;P2;SDS_P1;SDS_P2;PMS_P1;PMS_P2;Temp;Humidity;BMP_temperature;BMP_pressure;BME280_temperature;BME280_humidity;BME280_pressure;Samples;Min_cycle;Max_cycle;Signal;HPM_P1;HPM_P2
2023/08/26 00:00:25;;;;;;;0.45;0.45;;;13.90;99.90;;;;;;5094807;28;20208;-72
2023/08/26 00:02:51;;;;;;;0.60;0.60;;;13.80;99.90;;;;;;5095002;28;20196;-72
2023/08/26 00:05:17;;;;;;;0.40;0.40;;;13.80;99.90;;;;;;5093148;28;20264;-72
2023/08/26 00:07:42;;;;;;;0.40;0.40;;;13.90;99.90;;;;;;5105833;28;20193;-72
2023/08/26 00:10:08;;;;;;;0.43;0.43;;;13.90;99.90;;;;;;5114724;28;20666;-72
2023/08/26 00:12:34;;;;;;;0.50;0.50;;;13.90;99.90;;;;;;5114999;28;20658;-71
2023/08/26 00:15:00;;;;;;;0.43;0.43;;;13.90;99.90;;;;;;5115085;28;20251;-71
2023/08/26 00:17:26;;;;;;;0.40;0.40;;;13.90;99.90;;;;;;5112553;28;20286;-71
2023/08/26 00:19:51;;;;;;;0.40;0.40;;;13.90;99.90;;;;;;5114149;28;20196;-72
2023/08/26 00:22:17;;;;;;;0.40;0.40;;;13.90;99.90;;;;;;5113865;28;20202;-72
2023/08/26 00:24:44;;;;;;;0.40;0.40;;;13.80;99.90;;;;;;5113176;28;20330;-70
2023/08/26 00:27:10;;;;;;;0.40;0.40;;;13.90;99.90;;;;;;5113280;28;20562;-70
2023/08/26 00:29:35;;;;;;;0.50;0.50;;;13.90;99.90;;;;;;5121525;27;20226;-71
2023/08/26 00:32:01;;;;;;;0.40;0.40;;;13.90;99.90;;;;;;5135374;27;20260;-70
2023/08/26 00:34:27;;;;;;;0.40;0.40;;;13.90;99.90;;;;;;5135461;27;20269;-70
2023/08/26 00:36:53;;;;;;;0.40;0.40;;;13.90;99.90;;;;;;5134305;27;20199;-70
2023/08/26 00:39:19;;;;;;;0.40;0.40;;;13.90;99.90;;;;;;5135773;27;20201;-70
2023/08/26 00:41:44;;;;;;;0.40;0.40;;;13.90;99.90;;;;;;5135509;27;20191;-70
2023/08/26 00:44:10;;;;;;;0.40;0.40;;;13.90;99.90;;;;;;5135309;27;20656;-70
2023/08/26 00:46:36;;;;;;;0.40;0.40;;;13.90;99.90;;;;;;5135222;27;20182;-70
2023/08/26 00:49:02;;;;;;;0.40;0.40;;;13.90;99.90;;;;;;5135659;27;20231;-70
2023/08/26 00:51:29;;;;;;;0.50;0.50;;;13.90;99.90;;;;;;5135338;27;20187;-70
2023/08/26 00:53:55;;;;;;;0.40;0.40;;;13.90;99.90;;;;;;5106756;27;20195;-72
2023/08/26 00:56:22;;;;;;;0.40;0.40;;;13.90;99.90;;;;;;5093478;28;20277;-71
2023/08/26 00:58:49;;;;;;;0.40;0.40;;;13.90;99.90;;;;;;5092652;28;20283;-71
2023/08/26 01:01:15;;;;;;;0.40;0.40;;;13.90;99.90;;;;;;5092059;28;20204;-70
2023/08/26 01:03:41;;;;;;;0.50;0.50;;;13.90;99.90;;;;;;5099016;28;20227;-75
2023/08/26 01:06:06;;;;;;;0.43;0.43;;;13.80;99.90;;;;;;5109360;28;20227;-75
2023/08/26 01:08:33;;;;;;;0.40;0.40;;;13.90;99.90;;;;;;5113569;28;20188;-75
2023/08/26 01:11:06;;;;;;;0.30;0.30;;;13.90;99.90;;;;;;5113549;28;20194;-74
2023/08/26 01:14:12;;;;;;;0.40;0.40;;;13.90;99.90;;;;;;5113674;28;20187;-74
2023/08/26 01:16:42;;;;;;;0.40;0.40;;;13.90;99.90;;;;;;5110525;28;20199;-75
2023/08/26 01:19:30;;;;;;;0.45;0.45;;;13.90;99.90;;;;;;5101229;28;20192;-75
2023/08/26 01:22:01;;;;;;;0.40;0.40;;;13.90;99.90;;;;;;5092990;28;20220;-75
2023/08/26 01:24:27;;;;;;;0.40;0.40;;;13.90;99.90;;;;;;5091813;28;20199;-74
2023/08/26 01:26:53;;;;;;;0.40;0.40;;;13.90;99.90;;;;;;5106977;28;20294;-74
2023/08/26 01:29:19;;;;;;;0.40;0.40;;;13.90;99.90;;;;;;5113679;28;20172;-74
2023/08/26 01:31:49;;;;;;;0.40;0.40;;;13.90;99.90;;;;;;5111851;28;20559;-75
2023/08/26 01:34:22;;;;;;;0.40;0.40;;;13.90;99.90;;;;;;5112153;28;20223;-74
2023/08/26 01:36:50;;;;;;;0.40;0.40;;;13.90;99.90;;;;;;5113502;28;20660;-75
2023/08/26 01:39:16;;;;;;;0.40;0.40;;;13.90;99.90;;;;;;5113294;28;20184;-75
2023/08/26 01:41:50;;;;;;;0.47;0.47;;;13.90;99.90;;;;;;5113260;28;20222;-76
2023/08/26 01:44:17;;;;;;;0.55;0.55;;;13.90;99.90;;;;;;5113905;28;20184;-75
2023/08/26 01:46:45;;;;;;;0.40;0.40;;;13.90;99.90;;;;;;5113166;28;20569;-75
2023/08/26 01:49:11;;;;;;;0.40;0.40;;;13.90;99.90;;;;;;5106982;28;20203;-74
2023/08/26 01:51:37;;;;;;;0.47;0.47;;;13.90;99.90;;;;;;5093156;28;20273;-75
2023/08/26 01:54:06;;;;;;;0.35;0.35;;;13.90;99.90;;;;;;5091685;28;20196;-75
2023/08/26 01:56:32;;;;;;;0.50;0.50;;;13.90;99.90;;;;;;5091392;28;20192;-75
2023/08/26 01:58:58;;;;;;;0.40;0.40;;;13.90;99.90;;;;;;5093945;28;20528;-75
2023/08/26 02:01:24;;;;;;;0.57;0.57;;;13.80;99.90;;;;;;5113227;28;20328;-74
2023/08/26 02:03:50;;;;;;;0.32;0.32;;;13.80;99.90;;;;;;5112763;28;20276;-75
2023/08/26 02:06:15;;;;;;;0.50;0.50;;;13.90;99.90;;;;;;5113282;28;20207;-75
2023/08/26 02:08:41;;;;;;;0.60;0.60;;;13.80;99.90;;;;;;5111922;28;20194;-74
2023/08/26 02:11:09;;;;;;;0.43;0.43;;;13.80;99.90;;;;;;5111705;28;20286;-75
2023/08/26 02:13:35;;;;;;;0.40;0.40;;;13.90;99.90;;;;;;5111812;28;20192;-70
2023/08/26 02:16:01;;;;;;;0.40;0.40;;;13.90;99.90;;;;;;5094523;28;20215;-70
2023/08/26 02:18:27;;;;;;;0.40;0.40;;;13.90;99.90;;;;;;5092339;28;20196;-69
2023/08/26 02:20:52;;;;;;;3.20;1.58;;;13.90;99.90;;;;;;5092353;28;20192;-70
2023/08/26 02:23:18;;;;;;;0.40;0.40;;;13.90;99.90;;;;;;5107590;28;20207;-70
2023/08/26 02:25:44;;;;;;;0.40;0.40;;;13.90;99.90;;;;;;5146230;27;20218;-69
2023/08/26 02:28:10;;;;;;;0.40;0.40;;;13.90;99.90;;;;;;5116691;27;20183;-70
2023/08/26 02:30:35;;;;;;;0.40;0.40;;;13.90;99.90;;;;;;5115089;27;20191;-70
2023/08/26 02:33:06;;;;;;;0.40;0.40;;;13.90;99.90;;;;;;5115632;28;20275;-70
2023/08/26 02:35:33;;;;;;;0.43;0.43;;;13.90;99.90;;;;;;5116545;28;20260;-69
2023/08/26 02:37:59;;;;;;;0.40;0.40;;;13.90;99.90;;;;;;5115003;28;20202;-69
2023/08/26 02:40:25;;;;;;;0.40;0.40;;;13.80;99.90;;;;;;5115029;28;20191;-69
2023/08/26 02:42:51;;;;;;;0.40;0.40;;;13.90;99.90;;;;;;5149726;27;20230;-69
2023/08/26 02:45:16;;;;;;;0.70;0.70;;;13.90;99.90;;;;;;5110205;28;20200;-70
2023/08/26 02:47:42;;;;;;;0.40;0.40;;;13.90;99.90;;;;;;5094487;28;20703;-69
2023/08/26 02:50:08;;;;;;;0.50;0.50;;;13.90;99.90;;;;;;5094460;28;20196;-70
2023/08/26 02:52:34;;;;;;;0.40;0.40;;;13.90;99.90;;;;;;5095550;28;20188;-70
2023/08/26 02:55:00;;;;;;;0.40;0.40;;;13.90;99.90;;;;;;5094720;28;20207;-70
2023/08/26 02:57:26;;;;;;;0.50;0.50;;;13.90;99.90;;;;;;5114797;28;20199;-69
2023/08/26 02:59:52;;;;;;;0.35;0.35;;;13.90;99.90;;;;;;5114509;28;20241;-71
2023/08/26 03:02:19;;;;;;;0.32;0.32;;;13.90;99.90;;;;;;5095357;28;20204;-70
2023/08/26 03:04:45;;;;;;;0.40;0.40;;;13.90;99.90;;;;;;5104221;28;20232;-70
2023/08/26 03:07:11;;;;;;;0.40;0.40;;;13.90;99.90;;;;;;5128195;27;20401;-71
2023/08/26 03:09:37;;;;;;;0.50;0.50;;;13.90;99.90;;;;;;5095257;28;20219;-70
2023/08/26 03:12:03;;;;;;;0.40;0.40;;;13.90;99.90;;;;;;5093669;28;20291;-70
2023/08/26 03:14:29;;;;;;;0.30;0.30;;;13.90;99.90;;;;;;5093927;28;20559;-70
2023/08/26 03:16:54;;;;;;;0.40;0.40;;;13.90;99.90;;;;;;5093944;28;20196;-69
2023/08/26 03:19:21;;;;;;;0.40;0.40;;;13.90;99.90;;;;;;5124712;27;20249;-69
2023/08/26 03:21:47;;;;;;;0.50;0.50;;;13.80;99.90;;;;;;5134726;27;20213;-70
2023/08/26 03:24:16;;;;;;;0.50;0.50;;;13.80;99.90;;;;;;5169261;27;20199;-71
2023/08/26 03:26:44;;;;;;;0.50;0.50;;;13.90;99.90;;;;;;5134771;27;20286;-71
2023/08/26 03:29:11;;;;;;;0.40;0.40;;;13.80;99.90;;;;;;5133776;27;20299;-70
2023/08/26 03:31:38;;;;;;;0.40;0.40;;;13.80;99.90;;;;;;5134269;27;20559;-71
2023/08/26 03:34:04;;;;;;;0.40;0.40;;;13.80;99.90;;;;;;5134237;27;20614;-71
2023/08/26 03:36:30;;;;;;;0.50;0.50;;;13.90;99.90;;;;;;5135275;27;20193;-71
2023/08/26 03:38:55;;;;;;;0.55;0.55;;;13.80;99.90;;;;;;5133802;27;20646;-71
2023/08/26 03:41:21;;;;;;;0.70;0.70;;;13.90;99.90;;;;;;5128162;27;20192;-72
2023/08/26 03:43:47;;;;;;;0.40;0.40;;;13.80;99.90;;;;;;5093804;28;20188;-71
2023/08/26 03:46:13;;;;;;;0.40;0.40;;;13.90;99.90;;;;;;5093766;28;20610;-70
2023/08/26 03:48:38;;;;;;;0.40;0.40;;;13.90;99.90;;;;;;5093515;28;20280;-71
2023/08/26 03:51:05;;;;;;;0.40;0.40;;;13.90;99.90;;;;;;5093652;28;20212;-71
2023/08/26 03:53:32;;;;;;;0.65;0.65;;;13.90;99.90;;;;;;5111456;28;20198;-70
2023/08/26 03:55:58;;;;;;;0.40;0.40;;;13.90;99.90;;;;;;5113822;28;20249;-71
2023/08/26 03:58:26;;;;;;;0.38;0.38;;;13.90;99.90;;;;;;5113666;28;20709;-71
2023/08/26 04:01:00;;;;;;;0.50;0.50;;;13.90;99.90;;;;;;5112531;28;20719;-71
2023/08/26 04:03:25;;;;;;;0.40;0.40;;;13.90;99.90;;;;;;5112111;28;20658;-71
2023/08/26 04:05:58;;;;;;;0.40;0.40;;;13.90;99.90;;;;;;5112270;28;20233;-71
2023/08/26 04:08:23;;;;;;;0.30;0.30;;;13.90;99.90;;;;;;5113823;28;20615;-72
2023/08/26 04:10:54;;;;;;;0.40;0.40;;;13.90;99.90;;;;;;5113487;28;20703;-72
2023/08/26 04:13:25;;;;;;;0.40;0.40;;;13.90;99.90;;;;;;5113496;28;20195;-71
2023/08/26 04:15:55;;;;;;;0.47;0.47;;;13.90;99.90;;;;;;5130488;27;20206;-71
2023/08/26 04:18:22;;;;;;;0.40;0.40;;;13.90;99.90;;;;;;5133896;27;20187;-71
2023/08/26 04:20:48;;;;;;;0.40;0.40;;;13.90;99.90;;;;;;5134252;27;20219;-72
2023/08/26 04:23:14;;;;;;;0.45;0.45;;;13.90;99.90;;;;;;5134000;27;20745;-72
2023/08/26 04:25:41;;;;;;;0.50;0.50;;;13.90;99.90;;;;;;5125842;27;20215;-72
2023/08/26 04:28:07;;;;;;;0.40;0.40;;;13.90;99.90;;;;;;5092818;28;20212;-72
2023/08/26 04:30:34;;;;;;;0.35;0.35;;;14.00;99.90;;;;;;5092988;28;20698;-71
2023/08/26 04:33:00;;;;;;;0.45;0.45;;;14.00;99.90;;;;;;5093449;28;20245;-71
2023/08/26 04:35:27;;;;;;;0.50;0.50;;;14.00;99.90;;;;;;5092413;28;20202;-69
2023/08/26 04:37:52;;;;;;;0.40;0.40;;;14.00;99.90;;;;;;5093751;28;20198;-69
2023/08/26 04:40:19;;;;;;;0.43;0.43;;;14.00;99.90;;;;;;5092585;28;20283;-70
2023/08/26 04:42:45;;;;;;;0.40;0.40;;;14.00;99.90;;;;;;5092156;28;20204;-70
2023/08/26 04:45:14;;;;;;;0.40;0.40;;;14.00;99.90;;;;;;5093674;28;20200;-69
2023/08/26 04:47:40;;;;;;;0.30;0.30;;;14.00;99.90;;;;;;5092555;28;20196;-69
2023/08/26 04:50:07;;;;;;;0.50;0.50;;;14.00;99.90;;;;;;5113186;28;20190;-69
2023/08/26 04:52:33;;;;;;;0.40;0.40;;;13.90;99.90;;;;;;5113627;28;20184;-69
2023/08/26 04:54:58;;;;;;;0.40;0.40;;;14.00;99.90;;;;;;5114227;28;20274;-69
2023/08/26 04:57:24;;;;;;;0.40;0.40;;;14.00;99.90;;;;;;5112401;28;20232;-69
2023/08/26 04:59:50;;;;;;;0.40;0.40;;;14.00;99.90;;;;;;5113751;28;20191;-69
2023/08/26 05:02:15;;;;;;;0.50;0.50;;;14.00;99.90;;;;;;5113803;28;20206;-69
2023/08/26 05:04:41;;;;;;;0.40;0.40;;;14.00;99.90;;;;;;5095284;28;20292;-69
2023/08/26 05:07:07;;;;;;;0.40;0.40;;;14.00;99.90;;;;;;5092109;28;20196;-69
2023/08/26 05:09:33;;;;;;;0.40;0.40;;;14.00;99.90;;;;;;5093190;28;20199;-69
2023/08/26 05:11:58;;;;;;;0.45;0.45;;;14.10;99.90;;;;;;5123523;27;20232;-72
2023/08/26 05:14:24;;;;;;;0.40;0.40;;;14.10;99.90;;;;;;5132738;27;20202;-70
2023/08/26 05:16:50;;;;;;;0.50;0.50;;;14.10;99.90;;;;;;5134029;27;20202;-69
2023/08/26 05:19:16;;;;;;;1.88;0.60;;;14.10;99.90;;;;;;5133982;27;20179;-72
2023/08/26 05:21:42;;;;;;;0.40;0.40;;;14.10;99.90;;;;;;5131630;27;20208;-70
2023/08/26 05:24:08;;;;;;;0.57;0.57;;;14.10;99.90;;;;;;5113213;28;20227;-69
2023/08/26 05:26:34;;;;;;;0.40;0.40;;;14.20;99.90;;;;;;5113187;28;20203;-69
2023/08/26 05:28:59;;;;;;;0.50;0.50;;;14.10;99.90;;;;;;5113147;28;20191;-69
2023/08/26 05:31:26;;;;;;;1.05;0.95;;;14.20;99.90;;;;;;5111679;28;20685;-69
2023/08/26 05:33:52;;;;;;;0.43;0.43;;;14.20;99.90;;;;;;5109362;28;20749;-70
2023/08/26 05:36:18;;;;;;;0.40;0.40;;;14.20;99.90;;;;;;5092596;28;20661;-70
2023/08/26 05:38:44;;;;;;;0.40;0.40;;;14.30;99.90;;;;;;5091242;28;20222;-68
2023/08/26 05:41:09;;;;;;;0.40;0.40;;;14.30;99.90;;;;;;5092637;28;20192;-69
2023/08/26 05:43:35;;;;;;;0.40;0.40;;;14.30;99.90;;;;;;5092685;28;20237;-71
2023/08/26 05:46:01;;;;;;;0.30;0.30;;;14.30;99.90;;;;;;5109331;28;20248;-69
2023/08/26 05:48:27;;;;;;;0.40;0.40;;;14.30;99.90;;;;;;5112706;28;20638;-70
2023/08/26 05:50:56;;;;;;;0.40;0.40;;;14.30;99.90;;;;;;5112923;28;20194;-73
2023/08/26 05:53:22;;;;;;;0.40;0.40;;;14.30;99.90;;;;;;5112563;28;20195;-69
2023/08/26 05:55:48;;;;;;;0.50;0.50;;;14.30;99.90;;;;;;5111406;28;20332;-69
2023/08/26 05:58:14;;;;;;;0.50;0.50;;;14.30;99.90;;;;;;5111378;28;20286;-69
2023/08/26 06:00:39;;;;;;;0.40;0.40;;;14.40;99.90;;;;;;5112093;28;20196;-69
2023/08/26 06:03:05;;;;;;;0.45;0.45;;;14.40;99.90;;;;;;5112380;28;20207;-68
2023/08/26 06:05:31;;;;;;;0.40;0.40;;;14.40;99.90;;;;;;5112267;28;20234;-70
2023/08/26 06:07:56;;;;;;;0.40;0.40;;;14.40;99.90;;;;;;5111270;28;20225;-69
2023/08/26 06:10:23;;;;;;;0.30;0.30;;;14.40;99.90;;;;;;5112212;28;20211;-69
2023/08/26 06:12:49;;;;;;;0.35;0.35;;;14.40;99.90;;;;;;5112804;28;20524;-69
2023/08/26 06:15:15;;;;;;;0.40;0.40;;;14.50;99.90;;;;;;5111206;28;20248;-69
2023/08/26 06:17:43;;;;;;;0.40;0.40;;;14.50;99.90;;;;;;5112665;28;20637;-69
2023/08/26 06:20:09;;;;;;;0.30;0.30;;;14.60;99.90;;;;;;5112429;28;20206;-69
2023/08/26 06:22:35;;;;;;;0.50;0.50;;;14.60;99.90;;;;;;5112245;28;20198;-69
2023/08/26 06:25:01;;;;;;;0.80;0.80;;;14.60;99.90;;;;;;5112581;28;20211;-69
2023/08/26 06:27:29;;;;;;;0.40;0.40;;;14.60;99.90;;;;;;5111092;28;20278;-69
2023/08/26 06:29:58;;;;;;;0.40;0.40;;;14.60;99.90;;;;;;5109357;28;20195;-69
2023/08/26 06:32:24;;;;;;;0.47;0.47;;;14.60;99.90;;;;;;5091778;28;20271;-69
2023/08/26 06:34:50;;;;;;;0.40;0.40;;;14.50;99.90;;;;;;5092159;28;20195;-70
2023/08/26 06:37:15;;;;;;;0.35;0.35;;;14.60;99.90;;;;;;5092506;28;20192;-69
2023/08/26 06:39:41;;;;;;;0.40;0.40;;;14.70;99.90;;;;;;5091759;28;20655;-69
2023/08/26 06:42:07;;;;;;;0.30;0.30;;;14.80;99.90;;;;;;5108927;28;20200;-70
2023/08/26 06:44:33;;;;;;;0.32;0.32;;;14.90;99.90;;;;;;5110680;28;20294;-69
2023/08/26 06:47:02;;;;;;;0.40;0.40;;;15.00;99.90;;;;;;5111157;28;20210;-69
2023/08/26 06:49:27;;;;;;;0.30;0.30;;;15.10;99.90;;;;;;5112016;28;20799;-70
2023/08/26 06:51:53;;;;;;;0.30;0.30;;;15.00;99.90;;;;;;5112106;28;20473;-70
2023/08/26 06:54:19;;;;;;;0.45;0.45;;;15.10;99.90;;;;;;5112656;28;20188;-69
2023/08/26 06:56:45;;;;;;;0.40;0.40;;;15.20;99.90;;;;;;5096917;28;20279;-69
2023/08/26 06:59:12;;;;;;;0.50;0.50;;;15.30;99.90;;;;;;5091790;28;20192;-70
2023/08/26 07:01:37;;;;;;;0.30;0.30;;;15.30;99.90;;;;;;5091805;28;20218;-69
2023/08/26 07:04:07;;;;;;;0.30;0.30;;;15.30;99.90;;;;;;5102485;28;20517;-70
2023/08/26 07:06:35;;;;;;;0.50;0.50;;;15.30;99.90;;;;;;5112094;28;20286;-69
2023/08/26 07:09:01;;;;;;;0.40;0.40;;;15.30;99.90;;;;;;5112168;28;20191;-69
2023/08/26 07:11:27;;;;;;;0.40;0.40;;;15.30;99.90;;;;;;5112044;28;20622;-69
2023/08/26 07:13:53;;;;;;;0.40;0.40;;;15.20;99.90;;;;;;5115295;28;20274;-69
2023/08/26 07:16:19;;;;;;;0.32;0.32;;;15.20;99.90;;;;;;5115599;28;20191;-69
2023/08/26 07:18:45;;;;;;;0.30;0.30;;;15.20;99.90;;;;;;5114443;28;20195;-69
2023/08/26 07:21:11;;;;;;;0.30;0.30;;;15.30;99.90;;;;;;5114355;28;20218;-69
2023/08/26 07:23:38;;;;;;;0.40;0.40;;;15.30;99.90;;;;;;5115807;28;20244;-69
2023/08/26 07:26:03;;;;;;;0.60;0.60;;;15.30;99.90;;;;;;5115379;28;20199;-68
2023/08/26 07:28:29;;;;;;;0.40;0.40;;;15.40;99.90;;;;;;5115406;28;20209;-69
2023/08/26 07:31:02;;;;;;;0.22;0.22;;;15.50;99.90;;;;;;5115511;28;20188;-68
2023/08/26 07:33:28;;;;;;;0.30;0.30;;;15.50;99.90;;;;;;5115423;28;20183;-68
2023/08/26 07:36:20;;;;;;;0.40;0.40;;;15.50;99.90;;;;;;5114445;28;20207;-68
2023/08/26 07:38:47;;;;;;;0.40;0.40;;;15.50;99.90;;;;;;5092819;28;20826;-67
2023/08/26 07:41:12;;;;;;;0.40;0.40;;;15.40;99.90;;;;;;5095092;28;20192;-68
2023/08/26 07:43:38;;;;;;;0.40;0.40;;;15.40;99.90;;;;;;5094727;28;20693;-68
2023/08/26 07:46:04;;;;;;;0.30;0.30;;;15.30;99.90;;;;;;5094991;28;20215;-69
2023/08/26 07:48:30;;;;;;;0.30;0.30;;;15.30;99.90;;;;;;5094632;28;20267;-70
2023/08/26 07:50:56;;;;;;;0.60;0.60;;;15.30;99.90;;;;;;5094722;28;20268;-69
2023/08/26 07:53:22;;;;;;;0.30;0.30;;;15.30;99.90;;;;;;5094606;28;20670;-69
2023/08/26 07:55:48;;;;;;;0.38;0.38;;;15.30;99.90;;;;;;5094556;28;20667;-69
2023/08/26 07:58:13;;;;;;;0.30;0.30;;;15.30;99.90;;;;;;5094746;28;20206;-70
2023/08/26 08:00:39;;;;;;;0.40;0.40;;;15.20;99.90;;;;;;5125070;27;20218;-69
2023/08/26 08:03:05;;;;;;;0.35;0.35;;;15.20;99.90;;;;;;5135103;27;20198;-71
2023/08/26 08:05:31;;;;;;;0.40;0.40;;;15.30;99.90;;;;;;5135329;27;20227;-71
2023/08/26 08:07:57;;;;;;;0.40;0.40;;;15.30;99.90;;;;;;5118394;27;20199;-70
2023/08/26 08:10:22;;;;;;;0.40;0.40;;;15.20;99.90;;;;;;5096520;28;20716;-71
2023/08/26 08:12:48;;;;;;;0.30;0.30;;;15.40;99.90;;;;;;5115006;28;20184;-70
2023/08/26 08:15:14;;;;;;;0.35;0.35;;;15.40;99.90;;;;;;5116631;28;20666;-71
2023/08/26 08:17:39;;;;;;;0.30;0.30;;;15.40;99.90;;;;;;5114378;28;20192;-70
2023/08/26 08:20:06;;;;;;;0.30;0.30;;;15.30;99.90;;;;;;5114574;28;20195;-70
2023/08/26 08:22:41;;;;;;;0.40;0.40;;;15.40;99.90;;;;;;5114127;27;20195;-69
2023/08/26 08:25:08;;;;;;;0.30;0.30;;;15.40;99.90;;;;;;5114353;28;20341;-69
2023/08/26 08:27:33;;;;;;;0.30;0.30;;;15.40;99.90;;;;;;5115088;28;20196;-69
2023/08/26 08:29:59;;;;;;;0.20;0.20;;;15.50;99.90;;;;;;5115088;28;20195;-68
2023/08/26 08:32:26;;;;;;;0.30;0.30;;;15.50;99.90;;;;;;5114023;28;20271;-69
2023/08/26 08:34:52;;;;;;;0.43;0.43;;;15.60;99.90;;;;;;5115032;28;20198;-68
2023/08/26 08:37:18;;;;;;;0.40;0.40;;;15.70;99.90;;;;;;5114671;28;20230;-70
2023/08/26 08:39:44;;;;;;;0.50;0.50;;;15.60;99.90;;;;;;5114875;28;20650;-69
2023/08/26 08:42:15;;;;;;;0.50;0.50;;;15.70;99.90;;;;;;5114691;28;20210;-69
2023/08/26 08:44:42;;;;;;;0.40;0.40;;;15.60;99.90;;;;;;5114331;28;20203;-69
2023/08/26 08:47:09;;;;;;;0.40;0.40;;;15.60;99.90;;;;;;5114490;28;20662;-69
2023/08/26 08:49:36;;;;;;;0.50;0.45;;;15.70;99.90;;;;;;5114204;28;20670;-68
2023/08/26 08:52:03;;;;;;;0.47;0.47;;;15.80;99.90;;;;;;5114448;28;20203;-69
2023/08/26 08:54:34;;;;;;;0.40;0.40;;;15.80;99.90;;;;;;5114226;28;20591;-70
2023/08/26 08:57:03;;;;;;;0.30;0.30;;;15.80;99.90;;;;;;5130538;27;20564;-70
2023/08/26 08:59:35;;;;;;;0.40;0.40;;;15.80;99.90;;;;;;5134653;27;20194;-70
2023/08/26 09:02:03;;;;;;;0.35;0.35;;;16.00;99.90;;;;;;5133661;27;20606;-70
2023/08/26 09:04:29;;;;;;;0.47;0.47;;;16.10;99.90;;;;;;5134518;27;20292;-70
2023/08/26 09:06:55;;;;;;;0.30;0.30;;;16.10;99.90;;;;;;5134896;27;20191;-70
2023/08/26 09:09:21;;;;;;;0.40;0.40;;;16.10;99.90;;;;;;5133074;27;20195;-69
2023/08/26 09:11:48;;;;;;;0.35;0.35;;;16.10;99.90;;;;;;5118865;27;20277;-70
2023/08/26 09:14:14;;;;;;;0.30;0.30;;;16.20;99.90;;;;;;5114353;28;20195;-70
2023/08/26 09:16:42;;;;;;;0.40;0.40;;;16.20;99.90;;;;;;5113136;28;20203;-70
2023/08/26 09:19:12;;;;;;;0.30;0.30;;;16.20;99.90;;;;;;5108339;28;20613;-70
2023/08/26 09:21:46;;;;;;;0.30;0.30;;;16.20;99.90;;;;;;5093461;28;20279;-70
2023/08/26 09:24:17;;;;;;;0.32;0.32;;;16.40;99.90;;;;;;5093640;28;20900;-70
2023/08/26 09:26:56;;;;;;;0.40;0.40;;;16.60;99.90;;;;;;5092368;28;20236;-71
2023/08/26 09:29:22;;;;;;;0.47;0.47;;;16.60;99.90;;;;;;5095861;28;20236;-70
2023/08/26 09:31:54;;;;;;;0.30;0.30;;;16.80;99.90;;;;;;5112366;28;20204;-69
2023/08/26 09:34:29;;;;;;;0.30;0.30;;;16.90;99.90;;;;;;5113648;28;20646;-70
2023/08/26 09:36:55;;;;;;;0.30;0.30;;;16.70;99.90;;;;;;5113943;28;20714;-69
2023/08/26 09:39:21;;;;;;;0.40;0.40;;;16.70;99.90;;;;;;5113467;28;20662;-69
2023/08/26 09:41:51;;;;;;;0.20;0.20;;;17.00;99.90;;;;;;5112559;28;20244;-70
2023/08/26 09:44:18;;;;;;;0.30;0.30;;;17.00;99.90;;;;;;5112252;28;20256;-77
2023/08/26 09:46:44;;;;;;;0.50;0.50;;;17.00;99.90;;;;;;5113657;28;20183;-73
2023/08/26 09:49:18;;;;;;;0.20;0.20;;;17.10;99.90;;;;;;5112244;28;20298;-71
2023/08/26 09:51:50;;;;;;;0.30;0.30;;;17.10;99.90;;;;;;5115309;27;20247;-74
2023/08/26 09:54:17;;;;;;;0.35;0.35;;;17.20;99.90;;;;;;5132666;27;20194;-74
2023/08/26 09:56:47;;;;;;;0.30;0.30;;;17.20;99.90;;;;;;5134015;27;20228;-74
2023/08/26 09:59:13;;;;;;;0.68;0.68;;;17.10;99.90;;;;;;5132691;27;20190;-74
2023/08/26 10:01:40;;;;;;;0.25;0.25;;;17.00;99.90;;;;;;5133857;27;20194;-74
2023/08/26 10:04:10;;;;;;;0.25;0.25;;;17.10;99.90;;;;;;5132472;27;20219;-74
2023/08/26 10:06:43;;;;;;;0.20;0.20;;;17.10;99.90;;;;;;5167115;27;20677;-73
2023/08/26 10:09:31;;;;;;;0.30;0.30;;;17.20;99.90;;;;;;5133966;27;20179;-73
2023/08/26 10:12:03;;;;;;;0.28;0.28;;;17.20;99.90;;;;;;5116570;28;20195;-75
2023/08/26 10:14:30;;;;;;;0.20;0.20;;;17.10;99.90;;;;;;5112033;28;20233;-75
2023/08/26 10:16:59;;;;;;;0.38;0.38;;;17.00;99.90;;;;;;5093312;28;20688;-72
2023/08/26 10:19:28;;;;;;;0.30;0.30;;;17.00;99.90;;;;;;5092822;28;20196;-73
2023/08/26 10:21:55;;;;;;;0.20;0.20;;;17.00;99.90;;;;;;5091984;28;20203;-75
2023/08/26 10:24:24;;;;;;;0.30;0.30;;;16.90;99.90;;;;;;5091972;28;20214;-73
2023/08/26 10:26:50;;;;;;;0.30;0.30;;;16.70;99.90;;;;;;5106014;28;20207;-72
2023/08/26 10:29:17;;;;;;;0.22;0.22;;;16.60;99.90;;;;;;5110950;28;20195;-72
2023/08/26 10:31:45;;;;;;;0.32;0.32;;;16.50;99.90;;;;;;5112308;28;20184;-72
2023/08/26 10:34:11;;;;;;;0.30;0.30;;;16.40;99.90;;;;;;5112679;28;20192;-73
2023/08/26 10:36:39;;;;;;;0.40;0.40;;;16.40;99.90;;;;;;5111392;28;20249;-76
2023/08/26 10:39:15;;;;;;;0.40;0.40;;;16.30;99.90;;;;;;5111642;28;20203;-74
2023/08/26 10:42:12;;;;;;;0.30;0.30;;;16.30;99.90;;;;;;5099148;28;20191;-76
2023/08/26 10:44:57;;;;;;;0.30;0.30;;;16.30;99.90;;;;;;5090541;28;20207;-75
2023/08/26 10:47:46;;;;;;;0.65;0.40;;;16.50;99.90;;;;;;5092168;28;20199;-74
2023/08/26 10:50:22;;;;;;;0.30;0.30;;;16.60;99.90;;;;;;5096721;28;20273;-71
2023/08/26 10:52:58;;;;;;;0.30;0.30;;;16.70;99.90;;;;;;5094964;28;20685;-71
2023/08/26 10:55:30;;;;;;;0.43;0.43;;;16.70;99.90;;;;;;5095132;28;20227;-72
2023/08/26 10:58:12;;;;;;;0.82;0.40;;;16.60;99.90;;;;;;5096474;28;20238;-73
2023/08/26 11:00:45;;;;;;;0.30;0.30;;;16.60;99.90;;;;;;5095257;28;20257;-74
2023/08/26 11:03:13;;;;;;;0.50;0.50;;;16.60;99.90;;;;;;5095726;28;20192;-72
2023/08/26 11:06:00;;;;;;;0.28;0.28;;;16.70;99.90;;;;;;5094537;28;20228;-72
2023/08/26 11:08:26;;;;;;;0.30;0.30;;;16.80;99.90;;;;;;5095614;28;20654;-71
2023/08/26 11:10:52;;;;;;;0.77;0.77;;;16.90;99.90;;;;;;5101235;28;20187;-71
2023/08/26 11:13:20;;;;;;;0.30;0.30;;;17.00;99.90;;;;;;5113719;28;20196;-72
2023/08/26 11:15:46;;;;;;;0.25;0.25;;;16.80;99.90;;;;;;5115080;28;20236;-72
2023/08/26 11:18:12;;;;;;;0.75;0.68;;;16.80;99.90;;;;;;5114110;28;20203;-72
2023/08/26 11:20:38;;;;;;;0.50;0.50;;;16.70;99.90;;;;;;5115264;28;20219;-72
2023/08/26 11:23:05;;;;;;;0.30;0.30;;;16.70;99.90;;;;;;5114018;28;20223;-71
2023/08/26 11:25:33;;;;;;;1.33;0.52;;;16.70;99.90;;;;;;5114983;28;20733;-71
2023/08/26 11:28:07;;;;;;;0.30;0.30;;;16.70;99.90;;;;;;5115101;28;20255;-72
2023/08/26 11:30:45;;;;;;;0.40;0.40;;;16.80;99.90;;;;;;5115041;28;20635;-71
2023/08/26 11:33:13;;;;;;;0.47;0.47;;;16.70;99.90;;;;;;5115152;28;20183;-71
2023/08/26 11:35:39;;;;;;;0.38;0.38;;;16.90;99.90;;;;;;5116084;28;20559;-72
2023/08/26 11:38:08;;;;;;;0.30;0.30;;;16.90;99.90;;;;;;5101315;28;20219;-73
2023/08/26 11:40:35;;;;;;;0.35;0.35;;;17.00;99.90;;;;;;5095739;28;20706;-73
2023/08/26 11:43:12;;;;;;;0.55;0.55;;;17.00;99.90;;;;;;5095752;28;20191;-73
2023/08/26 11:45:39;;;;;;;0.32;0.32;;;17.10;99.90;;;;;;5125401;27;20300;-73
2023/08/26 11:48:09;;;;;;;0.30;0.30;;;17.00;99.90;;;;;;5136389;27;20266;-73
2023/08/26 11:50:35;;;;;;;0.30;0.30;;;17.00;99.90;;;;;;5136153;27;20191;-72
2023/08/26 11:53:03;;;;;;;0.45;0.45;;;16.90;99.90;;;;;;5136091;27;20590;-72
2023/08/26 11:55:30;;;;;;;0.40;0.40;;;16.70;99.90;;;;;;5131279;27;20191;-72
2023/08/26 11:57:57;;;;;;;0.40;0.40;;;16.80;99.90;;;;;;5095056;28;20188;-74
2023/08/26 12:00:23;;;;;;;0.40;0.40;;;16.80;99.90;;;;;;5128512;27;20345;-74
2023/08/26 12:03:40;;;;;;;0.30;0.30;;;16.80;99.90;;;;;;5094031;28;20196;-74
2023/08/26 12:06:07;;;;;;;0.73;0.50;;;16.80;99.90;;;;;;5080271;28;20254;-75
2023/08/26 12:08:33;;;;;;;0.40;0.40;;;16.80;99.90;;;;;;5138934;27;20662;-77
2023/08/26 12:10:59;;;;;;;0.40;0.40;;;16.80;99.90;;;;;;5115240;28;20220;-74
2023/08/26 12:13:38;;;;;;;0.43;0.43;;;16.70;99.90;;;;;;5115062;28;20191;-74
2023/08/26 12:16:05;;;;;;;0.40;0.40;;;16.70;99.90;;;;;;5114208;28;20191;-74
2023/08/26 12:18:30;;;;;;;1.20;0.55;;;16.70;99.90;;;;;;5113530;28;20195;-73
2023/08/26 12:20:56;;;;;;;0.40;0.40;;;16.70;99.90;;;;;;5115155;28;20275;-71
2023/08/26 12:23:22;;;;;;;0.30;0.30;;;16.90;99.90;;;;;;5115211;28;20215;-74
2023/08/26 12:25:48;;;;;;;0.50;0.50;;;17.00;99.90;;;;;;5114595;28;20733;-75
2023/08/26 12:28:24;;;;;;;0.30;0.30;;;17.00;99.90;;;;;;5113825;28;20294;-75
2023/08/26 12:30:50;;;;;;;0.43;0.43;;;17.00;99.90;;;;;;5114684;28;20270;-75
2023/08/26 12:33:17;;;;;;;0.40;0.40;;;17.00;99.90;;;;;;5114768;28;20195;-74
2023/08/26 12:35:44;;;;;;;0.30;0.30;;;17.10;99.90;;;;;;5113635;28;20199;-74
2023/08/26 12:38:10;;;;;;;3.15;1.10;;;17.00;99.90;;;;;;5113739;28;20661;-74
2023/08/26 12:40:38;;;;;;;0.45;0.45;;;17.00;99.90;;;;;;5119140;27;20466;-75
2023/08/26 12:43:05;;;;;;;0.47;0.47;;;17.00;99.90;;;;;;5134048;27;20226;-76
2023/08/26 12:45:31;;;;;;;0.32;0.32;;;17.10;99.90;;;;;;5134280;27;20215;-76
2023/08/26 12:47:57;;;;;;;0.40;0.40;;;17.20;99.90;;;;;;5135484;27;20193;-75
2023/08/26 12:50:23;;;;;;;0.30;0.30;;;17.20;99.90;;;;;;5133680;27;20190;-74